Luodian, China
Current Conditions -  °F | °C
As of 10:00 PM on Monday 24 Nov 2014 (Local Time) from ZUGY Reporting Station
Light Rain Light Rain  
Wind Chill: 50°   Ceiling: 800
Heat Index: 50°   Visibility: 4mi
Dew Point: 50°   Wind: 4mph
Humidity: 100%   Direction: 50°NE
Pressure: 30.12"   Gusts: NA
Location:  25.43°N, 106.77°E
Report Text: ZUGY 241400Z 05002MPS 360V090 6000 -RA SCT004 BKN008OVC02310/10 Q1020 NOSIG
Loading
Personal Weather Stations






























Interactive Weather Map New forecast layout! Learn more

10-Day Weather Forecast

Advertisements
Track Severe Weather on mobile